Time;durP1;ratioP1;P1;durP2;ratioP2;P2;SDS_P1;SDS_P2;PMS_P1;PMS_P2;Temp;Humidity;BMP_temperature;BMP_pressure;BME280_temperature;BME280_humidity;BME280_pressure;Samples;Min_cycle;Max_cycle;Signal;HPM_P1;HPM_P2
2021/01/04 00:00:51;;;;;;;30.52;19.13;;;;;;;1.44;85.24;101046.59;5023808;28;20036;-53
2021/01/04 00:03:50;;;;;;;31.67;18.55;;;;;;;1.43;85.40;101043.97;5023816;28;20108;-52
2021/01/04 00:06:21;;;;;;;28.00;18.05;;;;;;;1.48;85.38;101037.34;5023757;28;20395;-52
2021/01/04 00:09:15;;;;;;;25.15;14.80;;;;;;;1.31;84.98;101026.50;5023768;28;20056;-53
2021/01/04 00:11:55;;;;;;;33.85;19.45;;;;;;;1.13;85.95;101007.13;5023683;28;20327;-52
2021/01/04 00:14:39;;;;;;;30.33;19.10;;;;;;;1.31;85.97;101041.81;5022517;28;20029;-52
2021/01/04 00:17:40;;;;;;;29.83;19.02;;;;;;;1.53;85.23;101043.50;5023579;28;20037;-52
2021/01/04 00:20:16;;;;;;;29.52;18.92;;;;;;;1.55;85.27;101046.97;5010818;28;20351;-52
2021/01/04 00:23:23;;;;;;;28.85;18.20;;;;;;;1.50;84.44;101025.53;5003768;28;20038;-52
2021/01/04 00:26:11;;;;;;;30.02;18.13;;;;;;;1.69;84.46;101039.84;5015141;28;20341;-52
2021/01/04 00:28:38;;;;;;;25.67;16.65;;;;;;;0.96;85.47;100970.78;5019399;28;20037;-52
2021/01/04 00:31:17;;;;;;;32.47;19.05;;;;;;;1.03;85.65;100964.25;5020515;28;20026;-52
2021/01/04 00:33:44;;;;;;;29.40;19.00;;;;;;;1.08;85.72;100962.72;5019442;28;20038;-52
2021/01/04 00:36:23;;;;;;;30.02;18.13;;;;;;;1.32;85.60;101026.56;5021389;28;20052;-53
2021/01/04 00:38:51;;;;;;;27.15;17.58;;;;;;;1.58;85.34;101029.22;5033146;28;20057;-52
2021/01/04 00:41:28;;;;;;;27.83;16.90;;;;;;;1.32;85.24;101023.16;5058484;28;20130;-52
2021/01/04 00:43:57;;;;;;;28.23;18.35;;;;;;;0.91;86.03;100954.41;5060017;28;20064;-52
2021/01/04 00:46:39;;;;;;;29.52;19.20;;;;;;;1.32;86.50;101023.16;5058978;28;20033;-52
2021/01/04 00:49:42;;;;;;;28.30;18.08;;;;;;;1.41;85.69;101017.50;5059522;28;20025;-52
2021/01/04 00:52:21;;;;;;;;;;;;;;;1.45;85.71;101019.38;5021624;28;20079;-52
2021/01/04 00:55:10;;;;;;;28.33;17.38;;;;;;;1.54;86.16;101024.84;5050584;28;20267;-52
2021/01/04 00:58:01;;;;;;;28.58;17.85;;;;;;;1.19;85.67;100976.75;5044318;28;20045;-53
2021/01/04 01:00:31;;;;;;;25.75;16.13;;;;;;;0.77;86.19;100938.59;5053073;28;20051;-53
2021/01/04 01:03:12;;;;;;;26.30;17.35;;;;;;;1.30;86.26;101024.78;5066723;28;20029;-53
2021/01/04 01:06:02;;;;;;;23.75;15.85;;;;;;;1.25;86.03;101016.06;5066666;28;20337;-52
2021/01/04 01:08:31;;;;;;;28.90;17.38;;;;;;;1.20;86.27;101018.44;5066046;28;20035;-53
2021/01/04 01:11:10;;;;;;;26.13;16.88;;;;;;;1.08;86.69;101016.28;5066600;28;20218;-53
2021/01/04 01:13:45;;;;;;;28.65;18.23;;;;;;;0.77;86.44;100950.47;5065385;28;20056;-53
2021/01/04 01:16:18;;;;;;;28.00;17.20;;;;;;;1.22;86.39;101005.75;5066194;28;20318;-52
2021/01/04 01:19:16;;;;;;;26.30;17.42;;;;;;;0.99;85.39;100937.72;5065722;28;20029;-52
2021/01/04 01:21:45;;;;;;;27.77;18.05;;;;;;;0.97;85.20;100949.56;5064344;28;20318;-52
2021/01/04 01:24:11;;;;;;;24.90;17.77;;;;;;;1.08;85.99;100988.22;5065829;28;20056;-53
2021/01/04 01:27:08;;;;;;;23.33;16.08;;;;;;;1.35;85.45;100992.63;5066293;28;20028;-53
2021/01/04 01:30:04;;;;;;;24.65;17.35;;;;;;;1.41;84.98;100992.88;5059515;28;20025;-53
2021/01/04 01:33:04;;;;;;;24.75;15.73;;;;;;;1.48;83.97;100989.75;5065301;28;20083;-53
2021/01/04 01:36:09;;;;;;;27.48;17.42;;;;;;;1.34;84.89;100978.13;5065030;28;20313;-53
2021/01/04 01:39:11;;;;;;;25.20;16.50;;;;;;;1.24;84.98;100989.69;5044320;28;20057;-53
2021/01/04 01:42:12;;;;;;;24.77;16.33;;;;;;;1.39;84.70;100994.50;5043866;28;20042;-53
2021/01/04 01:44:47;;;;;;;27.58;18.38;;;;;;;1.45;84.33;100987.03;4986748;28;20098;-52
2021/01/04 01:47:27;;;;;;;27.98;16.85;;;;;;;1.12;83.99;100915.25;5004889;28;20314;-52
2021/01/04 01:50:11;;;;;;;27.77;17.30;;;;;;;1.53;83.90;100984.78;5017665;28;20042;-53
2021/01/04 01:52:53;;;;;;;24.90;17.98;;;;;;;1.10;83.84;100912.63;5041305;28;20093;-53
2021/01/04 01:55:48;;;;;;;26.50;17.20;;;;;;;0.74;84.33;100907.00;5037515;28;20294;-52
2021/01/04 01:58:26;;;;;;;26.45;17.00;;;;;;;1.22;84.77;100990.44;5004780;28;20224;-52
2021/01/04 02:01:15;;;;;;;27.73;18.30;;;;;;;1.45;84.17;100989.59;5032924;28;20315;-52
2021/01/04 02:03:52;;;;;;;29.20;17.80;;;;;;;1.57;84.18;100986.66;5044119;28;20029;-52
2021/01/04 02:06:29;;;;;;;29.55;18.15;;;;;;;1.62;83.79;100987.66;5043271;28;20115;-52
2021/01/04 02:09:05;;;;;;;28.98;18.67;;;;;;;1.25;83.69;100944.63;5043948;28;20037;-52
2021/01/04 02:11:46;;;;;;;35.20;20.40;;;;;;;0.93;83.86;100922.22;5042837;28;20060;-52
2021/01/04 02:14:31;;;;;;;31.38;20.70;;;;;;;1.43;84.24;100980.19;5044372;28;20045;-52
2021/01/04 02:17:09;;;;;;;34.17;20.75;;;;;;;1.50;83.33;101008.53;5045423;28;20357;-52
2021/01/04 02:19:57;;;;;;;32.83;21.10;;;;;;;1.48;83.24;101001.59;5064861;28;20032;-52
2021/01/04 02:22:32;;;;;;;33.83;21.38;;;;;;;1.32;83.95;101003.59;5055944;28;20071;-52
2021/01/04 02:24:58;;;;;;;37.60;23.52;;;;;;;1.54;83.65;100995.06;5065163;28;20096;-52
2021/01/04 02:27:33;;;;;;;38.92;24.58;;;;;;;1.09;84.15;100938.09;5065020;28;20191;-53
2021/01/04 02:29:59;;;;;;;35.55;21.98;;;;;;;1.25;84.15;100998.22;5064556;28;20060;-52
2021/01/04 02:32:25;;;;;;;34.30;20.73;;;;;;;1.26;84.10;100993.16;5065197;28;20064;-52
2021/01/04 02:34:54;;;;;;;32.40;20.58;;;;;;;0.86;84.05;100927.88;5064672;28;20029;-52
2021/01/04 02:37:22;;;;;;;35.58;20.13;;;;;;;0.88;83.89;100939.00;5065093;28;20033;-52
2021/01/04 02:39:50;;;;;;;32.78;20.75;;;;;;;0.83;84.12;100915.88;5064710;28;20094;-52
2021/01/04 02:42:22;;;;;;;33.67;20.50;;;;;;;1.38;83.53;100985.09;5064804;28;20041;-52
2021/01/04 02:44:47;;;;;;;36.80;22.67;;;;;;;1.23;84.31;100994.72;5064905;28;20025;-52
2021/01/04 02:47:40;;;;;;;39.45;21.75;;;;;;;1.03;84.84;100989.75;5062753;28;20104;-54
2021/01/04 02:50:09;;;;;;;37.70;23.95;;;;;;;1.09;85.45;100984.00;5044620;28;20266;-53
2021/01/04 02:52:50;;;;;;;40.17;23.63;;;;;;;1.08;84.88;100982.25;5044718;28;20037;-53
2021/01/04 02:55:31;;;;;;;38.72;22.02;;;;;;;0.51;85.08;100910.41;5059412;28;20044;-53
2021/01/04 02:58:16;;;;;;;36.47;22.63;;;;;;;0.36;86.30;100920.00;5049892;28;20040;-53
2021/01/04 03:00:47;;;;;;;42.65;23.90;;;;;;;0.82;84.80;100943.88;5064038;28;20051;-53
2021/01/04 03:03:14;;;;;;;37.78;23.30;;;;;;;0.78;85.88;100976.03;5064685;28;20218;-52
2021/01/04 03:05:40;;;;;;;36.53;22.13;;;;;;;1.10;85.30;100985.72;5064318;28;20234;-53
2021/01/04 03:08:06;;;;;;;39.40;21.77;;;;;;;1.04;85.02;100986.34;5064189;28;20040;-53
2021/01/04 03:10:38;;;;;;;38.17;23.00;;;;;;;1.02;84.96;100978.66;5064539;28;20052;-52
2021/01/04 03:13:15;;;;;;;40.30;23.88;;;;;;;1.02;85.33;100972.69;5064256;28;20025;-52
2021/01/04 03:16:20;;;;;;;45.83;25.00;;;;;;;0.81;85.89;100945.56;5064554;28;20033;-52
2021/01/04 03:18:51;;;;;;;40.58;24.73;;;;;;;0.79;85.04;100908.06;5025170;28;20111;-52
2021/01/04 03:21:21;;;;;;;41.45;23.95;;;;;;;0.86;85.91;100967.00;5057007;28;20025;-54
2021/01/04 03:23:49;;;;;;;34.78;21.75;;;;;;;0.46;86.52;100911.91;5063287;28;20029;-53
2021/01/04 03:26:21;;;;;;;39.03;22.38;;;;;;;0.84;85.96;100937.13;5063749;28;20025;-53
2021/01/04 03:28:47;;;;;;;36.22;22.95;;;;;;;0.86;86.19;100967.00;5054138;28;20036;-53
2021/01/04 03:31:13;;;;;;;40.05;23.77;;;;;;;0.89;86.38;100970.50;5046810;28;20056;-53
2021/01/04 03:33:39;;;;;;;39.95;23.75;;;;;;;0.71;86.90;100951.09;5063898;28;20329;-53
2021/01/04 03:36:06;;;;;;;40.53;23.92;;;;;;;0.71;87.25;100976.59;5063845;28;20029;-53
2021/01/04 03:38:32;;;;;;;41.38;24.35;;;;;;;0.88;85.99;100971.28;5045241;28;20318;-53
2021/01/04 03:40:59;;;;;;;38.97;21.88;;;;;;;0.96;86.31;100978.44;5043710;28;20271;-53
2021/01/04 03:43:25;;;;;;;39.20;22.95;;;;;;;0.84;86.15;100973.72;5043864;28;20025;-53
2021/01/04 03:45:51;;;;;;;40.75;23.48;;;;;;;1.11;85.61;100973.06;5043558;28;20135;-53
2021/01/04 03:48:17;;;;;;;37.65;22.60;;;;;;;1.06;85.23;100968.59;5043674;28;20025;-53
2021/01/04 03:50:43;;;;;;;42.03;23.92;;;;;;;1.22;85.54;100980.25;5051534;28;20370;-53
2021/01/04 03:53:08;;;;;;;40.08;23.70;;;;;;;0.98;85.22;100963.19;5063680;28;20032;-53
2021/01/04 03:55:37;;;;;;;44.17;23.67;;;;;;;1.08;85.47;100978.00;5062970;28;20440;-53
2021/01/04 03:58:03;;;;;;;35.40;22.48;;;;;;;1.15;85.48;100979.97;5063044;28;20035;-53
2021/01/04 04:00:29;;;;;;;41.20;23.80;;;;;;;1.23;85.21;100993.06;5062806;28;20044;-53
2021/01/04 04:02:54;;;;;;;38.80;23.90;;;;;;;0.97;86.26;100986.94;5062525;28;20027;-53
2021/01/04 04:05:20;;;;;;;44.95;23.75;;;;;;;1.09;86.02;100982.31;5063583;28;20040;-53
2021/01/04 04:07:46;;;;;;;40.05;22.20;;;;;;;0.88;86.39;100977.25;5063222;28;20096;-52
2021/01/04 04:10:13;;;;;;;38.83;22.48;;;;;;;0.91;86.64;100976.50;5063115;28;20033;-53
2021/01/04 04:12:39;;;;;;;37.08;20.70;;;;;;;1.03;86.39;100984.63;5062895;28;20134;-53
2021/01/04 04:15:08;;;;;;;36.08;21.58;;;;;;;0.80;86.24;100966.75;5063234;28;20052;-53
2021/01/04 04:17:33;;;;;;;36.53;22.40;;;;;;;1.08;86.05;100987.34;5063148;28;20032;-53
2021/01/04 04:19:59;;;;;;;39.45;21.38;;;;;;;0.91;86.15;100984.16;5062760;28;20033;-52
2021/01/04 04:22:25;;;;;;;39.97;23.77;;;;;;;0.96;85.83;100997.97;5062789;28;20020;-53
2021/01/04 04:24:50;;;;;;;37.83;23.40;;;;;;;0.78;85.90;101000.66;5063159;28;20029;-53
2021/01/04 04:27:16;;;;;;;33.17;21.27;;;;;;;0.92;86.19;100984.22;5061706;28;20552;-53
2021/01/04 04:29:44;;;;;;;33.58;20.63;;;;;;;0.69;86.37;100989.28;5042433;28;20025;-52
2021/01/04 04:32:10;;;;;;;36.47;21.70;;;;;;;0.69;86.28;100986.72;5042769;28;20064;-53
2021/01/04 04:34:36;;;;;;;36.42;21.75;;;;;;;0.64;86.61;100997.53;5042662;28;20067;-53
2021/01/04 04:37:03;;;;;;;38.40;23.85;;;;;;;0.76;86.56;100987.84;5042896;28;20060;-52
2021/01/04 04:39:28;;;;;;;36.78;22.88;;;;;;;0.80;85.70;100987.16;5042966;28;20330;-53
2021/01/04 04:41:54;;;;;;;39.22;22.85;;;;;;;0.67;86.39;100990.00;5043033;28;20140;-53
2021/01/04 04:44:32;;;;;;;41.58;24.80;;;;;;;0.67;86.26;100996.00;5042733;28;20137;-53
2021/01/04 04:47:35;;;;;;;38.45;22.98;;;;;;;0.87;86.21;100993.38;5043166;28;20322;-53
2021/01/04 04:50:18;;;;;;;41.17;24.88;;;;;;;0.80;86.43;100999.06;5044427;28;20100;-53
2021/01/04 04:53:15;;;;;;;42.83;24.23;;;;;;;0.69;86.42;100999.47;5061569;28;20070;-53
2021/01/04 04:56:09;;;;;;;40.38;22.40;;;;;;;0.77;86.66;100997.25;5062576;28;20035;-53
2021/01/04 04:58:57;;;;;;;38.13;22.92;;;;;;;1.00;85.97;100994.72;5052445;28;20413;-53
2021/01/04 05:01:28;;;;;;;40.25;22.52;;;;;;;1.11;85.42;100992.56;5039185;28;20048;-53
2021/01/04 05:04:15;;;;;;;42.15;24.27;;;;;;;1.08;85.26;100990.78;5052619;28;20187;-53
2021/01/04 05:06:48;;;;;;;38.58;22.77;;;;;;;0.43;85.00;100908.34;5062591;28;20083;-53
2021/01/04 05:09:32;;;;;;;40.25;23.83;;;;;;;0.91;85.82;100984.16;5062153;28;20037;-53
2021/01/04 05:12:09;;;;;;;35.78;22.10;;;;;;;0.30;84.96;100909.53;5062643;28;20083;-53
2021/01/04 05:14:41;;;;;;;39.22;21.75;;;;;;;0.26;85.84;100907.72;5062617;28;20035;-53
2021/01/04 05:17:12;;;;;;;41.50;23.38;;;;;;;0.85;84.90;100977.13;5062590;28;20214;-53
2021/01/04 05:20:11;;;;;;;36.78;21.70;;;;;;;0.81;85.15;100968.50;5062761;28;20048;-54
2021/01/04 05:22:49;;;;;;;35.92;20.25;;;;;;;0.74;84.85;100976.72;5062312;28;20053;-53
2021/01/04 05:25:36;;;;;;;39.60;23.02;;;;;;;0.81;84.88;100959.97;5062399;28;20024;-52
2021/01/04 05:28:28;;;;;;;34.97;21.38;;;;;;;0.23;84.61;100898.25;5046809;28;20025;-52
2021/01/04 05:30:59;;;;;;;;;;;;;;;0.83;84.27;100959.22;5042527;28;20029;-52
2021/01/04 05:33:34;;;;;;;35.55;21.08;;;;;;;0.74;84.49;100952.91;5047855;28;20201;-52
2021/01/04 05:36:26;;;;;;;34.03;20.92;;;;;;;0.83;84.56;100955.81;5061895;28;20040;-53
2021/01/04 05:39:07;;;;;;;36.75;22.05;;;;;;;0.65;84.37;100917.72;5051002;28;20048;-54
2021/01/04 05:41:50;;;;;;;40.15;24.27;;;;;;;0.82;84.88;100954.94;5062267;28;20095;-53
2021/01/04 05:44:40;;;;;;;44.00;25.85;;;;;;;0.82;85.20;100954.94;5062258;28;20029;-53
2021/01/04 05:47:26;;;;;;;41.92;24.17;;;;;;;0.65;85.36;100956.81;5063713;28;20253;-52
2021/01/04 05:50:41;;;;;;;48.75;26.80;;;;;;;0.98;84.86;100981.91;5066056;28;20099;-54
2021/01/04 05:53:06;;;;;;;43.50;26.02;;;;;;;0.80;84.42;100964.22;5057669;28;20326;-52
2021/01/04 05:55:32;;;;;;;45.03;26.40;;;;;;;0.81;84.57;100978.72;5065464;28;20045;-53
2021/01/04 05:58:10;;;;;;;45.53;27.00;;;;;;;0.79;84.12;100980.31;5065475;28;20048;-54
2021/01/04 06:00:36;;;;;;;46.47;26.63;;;;;;;0.73;84.33;101002.13;5065492;28;20062;-53
2021/01/04 06:03:18;;;;;;;40.25;23.88;;;;;;;0.13;84.84;100942.84;5064882;28;20280;-53
2021/01/04 06:05:44;;;;;;;42.17;26.43;;;;;;;0.64;84.50;100990.78;5065906;28;20033;-53
2021/01/04 06:08:28;;;;;;;41.13;25.63;;;;;;;0.66;84.16;101013.78;5065466;28;20629;-53
2021/01/04 06:11:11;;;;;;;42.78;25.65;;;;;;;0.82;84.28;101005.94;5064991;28;20060;-53
2021/01/04 06:13:39;;;;;;;40.72;24.58;;;;;;;0.60;83.54;101026.25;5065378;28;20032;-52
2021/01/04 06:16:07;;;;;;;44.97;25.85;;;;;;;0.26;84.14;101013.00;5062962;28;20063;-52
2021/01/04 06:18:33;;;;;;;42.85;26.15;;;;;;;0.50;84.24;100999.56;5064792;28;20024;-52
2021/01/04 06:21:17;;;;;;;39.65;24.13;;;;;;;0.49;83.93;101021.59;5061435;28;20357;-52
2021/01/04 06:23:43;;;;;;;39.95;24.95;;;;;;;0.51;83.63;101012.38;5062910;28;20021;-52
2021/01/04 06:26:21;;;;;;;40.08;24.77;;;;;;;0.05;83.87;100935.72;5064800;28;20035;-52
2021/01/04 06:28:49;;;;;;;39.70;24.30;;;;;;;-0.02;83.87;100926.94;5058580;28;20017;-53
2021/01/04 06:31:24;;;;;;;41.88;26.15;;;;;;;0.57;83.25;100988.81;5059529;28;20245;-53
2021/01/04 06:33:56;;;;;;;38.17;24.58;;;;;;;0.34;84.33;100998.94;5059300;28;20037;-53
2021/01/04 06:36:22;;;;;;;;;;;;;;;0.69;83.30;101003.72;5044819;28;20098;-52
2021/01/04 06:38:48;;;;;;;35.03;23.30;;;;;;;0.54;82.66;101009.03;5064556;28;19912;-52
2021/01/04 06:41:27;;;;;;;36.72;25.02;;;;;;;0.14;83.21;100936.06;5064864;28;20032;-52
2021/01/04 06:43:52;;;;;;;36.42;24.52;;;;;;;0.39;83.27;101009.31;5062659;28;20029;-53
2021/01/04 06:46:28;;;;;;;38.30;24.20;;;;;;;0.44;82.29;101004.38;5062137;28;20092;-53
2021/01/04 06:49:22;;;;;;;35.17;22.67;;;;;;;0.54;82.76;101010.72;5064150;28;20028;-53
2021/01/04 06:52:34;;;;;;;32.90;22.50;;;;;;;0.69;82.17;101011.38;5055818;28;20377;-53
2021/01/04 06:55:18;;;;;;;35.20;22.42;;;;;;;0.81;82.11;101016.06;5059224;28;20036;-53
2021/01/04 06:58:13;;;;;;;31.58;19.83;;;;;;;0.43;82.13;101018.81;5062863;28;20012;-53
2021/01/04 07:01:06;;;;;;;31.77;21.02;;;;;;;0.45;82.30;101027.38;5062490;28;20071;-53
2021/01/04 07:03:38;;;;;;;32.70;21.52;;;;;;;0.61;82.04;101030.56;5058476;28;20214;-54
2021/01/04 07:06:41;;;;;;;31.90;21.25;;;;;;;0.61;81.51;101011.03;5064240;28;20028;-53
2021/01/04 07:09:34;;;;;;;32.25;21.38;;;;;;;0.61;81.96;101015.28;5057655;28;20030;-53
2021/01/04 07:12:19;;;;;;;33.38;20.10;;;;;;;0.10;81.25;100945.28;5044222;28;20040;-53
2021/01/04 07:15:20;;;;;;;27.05;17.98;;;;;;;0.17;81.82;101012.63;5044326;28;20064;-52
2021/01/04 07:18:11;;;;;;;27.25;17.60;;;;;;;0.34;81.76;101010.78;5032946;28;20337;-52
2021/01/04 07:20:47;;;;;;;30.02;17.90;;;;;;;0.24;82.45;101011.22;5053054;28;20053;-53
2021/01/04 07:23:34;;;;;;;26.73;17.17;;;;;;;0.35;81.46;101012.53;5063716;28;20067;-54
2021/01/04 07:25:59;;;;;;;31.67;18.95;;;;;;;0.50;82.15;101012.31;5063586;28;20287;-53
2021/01/04 07:28:44;;;;;;;29.90;19.35;;;;;;;0.40;81.46;101013.59;5063854;28;20045;-53
2021/01/04 07:31:33;;;;;;;27.33;18.52;;;;;;;0.50;81.58;101019.94;5063353;28;20306;-53
2021/01/04 07:34:12;;;;;;;27.90;18.38;;;;;;;0.22;81.47;100949.16;5046459;28;20025;-53
2021/01/04 07:36:55;;;;;;;29.30;19.40;;;;;;;0.62;81.15;101027.22;5043998;28;20032;-53
2021/01/04 07:39:36;;;;;;;31.10;19.00;;;;;;;0.75;80.86;101038.78;5058435;28;20104;-52
2021/01/04 07:42:33;;;;;;;30.65;19.58;;;;;;;0.55;80.24;101017.59;5058391;28;20036;-53
2021/01/04 07:45:39;;;;;;;29.50;19.75;;;;;;;0.42;80.88;101044.25;5043717;28;20041;-54
2021/01/04 07:48:44;;;;;;;32.83;20.85;;;;;;;0.46;80.77;101054.63;5043559;28;20036;-52
2021/01/04 07:51:43;;;;;;;31.92;19.75;;;;;;;0.48;81.65;101027.50;5043719;28;20037;-53
2021/01/04 07:54:12;;;;;;;34.40;21.02;;;;;;;0.66;81.22;101036.72;5069813;28;20045;-53
2021/01/04 07:56:44;;;;;;;34.42;21.23;;;;;;;0.79;81.51;101021.09;5052082;28;20337;-53
2021/01/04 07:59:09;;;;;;;;;;;;;;;0.64;81.15;101005.19;5043939;28;20044;-52
2021/01/04 08:02:01;;;;;;;33.47;20.73;;;;;;;0.60;81.76;100991.47;5042800;28;19937;-53
2021/01/04 08:04:38;;;;;;;31.63;20.63;;;;;;;0.78;80.60;100986.22;5057424;28;20040;-52
2021/01/04 08:07:21;;;;;;;35.95;23.05;;;;;;;0.12;80.50;100886.78;5043255;28;20155;-52
2021/01/04 08:10:25;;;;;;;35.30;21.58;;;;;;;0.57;80.31;101004.09;5042763;28;20333;-52
2021/01/04 08:13:28;;;;;;;36.42;22.45;;;;;;;0.48;80.11;101024.94;5043225;28;20112;-55
2021/01/04 08:16:07;;;;;;;36.20;22.10;;;;;;;0.55;80.85;101020.13;5042900;28;20056;-54
2021/01/04 08:18:34;;;;;;;35.13;20.88;;;;;;;0.41;80.96;101025.50;5043218;28;20029;-53
2021/01/04 08:21:20;;;;;;;37.22;22.67;;;;;;;0.06;80.67;100961.25;5043271;28;20100;-53
2021/01/04 08:24:04;;;;;;;37.72;21.25;;;;;;;0.39;81.00;101036.47;5056405;28;20047;-53
2021/01/04 08:26:53;;;;;;;37.50;22.80;;;;;;;0.31;81.23;101062.50;5053448;28;20032;-53
2021/01/04 08:29:40;;;;;;;41.83;23.48;;;;;;;-0.08;81.17;100960.66;5061345;28;20037;-53
2021/01/04 08:32:33;;;;;;;37.22;22.88;;;;;;;0.20;81.04;101053.53;5049156;28;20026;-52
2021/01/04 08:35:15;;;;;;;42.00;23.73;;;;;;;-0.10;82.05;100991.94;5055957;28;20156;-53
2021/01/04 08:37:46;;;;;;;43.65;25.58;;;;;;;0.37;81.56;101061.88;5058199;28;20088;-53
2021/01/04 08:40:34;;;;;;;39.42;24.08;;;;;;;0.43;80.84;101066.34;5060388;28;20075;-53
2021/01/04 08:43:03;;;;;;;43.10;25.33;;;;;;;0.56;80.31;101057.56;5060238;28;20025;-54
2021/01/04 08:45:35;;;;;;;41.13;24.10;;;;;;;0.60;80.08;101028.81;5062238;28;20032;-53
2021/01/04 08:48:15;;;;;;;41.60;25.52;;;;;;;0.54;79.64;100980.16;5045794;28;20360;-53
2021/01/04 08:50:45;;;;;;;39.67;24.73;;;;;;;0.48;79.28;100994.38;5054887;28;20029;-53
2021/01/04 08:53:21;;;;;;;42.35;25.02;;;;;;;0.06;79.41;100938.31;5053894;28;20089;-53
2021/01/04 08:55:48;;;;;;;43.50;23.83;;;;;;;0.27;80.22;101024.06;5052462;28;20052;-52
2021/01/04 08:58:39;;;;;;;41.67;25.80;;;;;;;0.33;81.37;101037.09;5055158;28;20131;-53
2021/01/04 09:01:27;;;;;;;44.23;27.00;;;;;;;0.51;80.01;101037.84;5050246;28;20075;-53
2021/01/04 09:04:09;;;;;;;44.45;26.52;;;;;;;0.14;79.70;100961.56;5061548;28;20238;-53
2021/01/04 09:06:48;;;;;;;43.70;25.48;;;;;;;0.13;79.89;100960.69;5062762;28;20095;-54
2021/01/04 09:09:19;;;;;;;43.40;24.00;;;;;;;0.30;80.78;101019.97;5062127;28;20375;-53
2021/01/04 09:11:56;;;;;;;47.67;26.95;;;;;;;0.45;80.69;101035.03;5062474;28;20214;-54
2021/01/04 09:14:33;;;;;;;54.67;28.45;;;;;;;0.22;80.54;100944.06;5060265;28;20330;-53
2021/01/04 09:16:59;;;;;;;48.30;28.65;;;;;;;0.47;81.50;101014.69;5048353;28;20031;-53
2021/01/04 09:19:38;;;;;;;49.22;27.67;;;;;;;-0.01;80.45;100933.78;5059485;28;20041;-52
2021/01/04 09:22:10;;;;;;;44.63;25.63;;;;;;;0.37;81.56;101031.31;5064246;28;20241;-54
2021/01/04 09:24:40;;;;;;;47.80;26.65;;;;;;;-0.08;80.30;100939.44;5062897;28;20024;-54
2021/01/04 09:27:35;;;;;;;53.13;28.30;;;;;;;0.42;80.27;101006.00;5060351;28;20080;-53
2021/01/04 09:30:06;;;;;;;49.25;24.23;;;;;;;0.11;80.74;100990.31;5065867;28;20270;-53
2021/01/04 09:32:39;;;;;;;45.97;25.90;;;;;;;0.23;80.48;101020.53;5059371;28;20037;-52
2021/01/04 09:35:15;;;;;;;53.67;27.30;;;;;;;0.05;80.72;100981.56;5054411;28;20269;-53
2021/01/04 09:37:41;;;;;;;55.20;27.67;;;;;;;0.32;80.81;101000.53;5046096;28;20048;-53
2021/01/04 09:40:16;;;;;;;47.33;26.83;;;;;;;-0.08;80.21;100931.78;5045732;28;20279;-53
2021/01/04 09:42:41;;;;;;;52.03;27.05;;;;;;;0.29;80.68;101002.09;5045860;28;20029;-53
2021/01/04 09:45:11;;;;;;;50.20;26.42;;;;;;;-0.08;79.55;100913.97;5045947;28;20326;-53
2021/01/04 09:47:44;;;;;;;50.28;27.50;;;;;;;-0.12;80.70;100932.47;5045766;28;20274;-52
2021/01/04 09:50:28;;;;;;;47.03;26.05;;;;;;;-0.09;79.70;100932.59;5045885;28;20026;-52
2021/01/04 09:53:17;;;;;;;45.92;26.17;;;;;;;0.30;79.86;100997.06;5056932;28;20028;-52
2021/01/04 09:55:44;;;;;;;48.05;25.73;;;;;;;0.15;80.77;100987.09;5065727;28;20028;-53
2021/01/04 09:58:10;;;;;;;49.28;26.98;;;;;;;0.14;80.80;100992.13;5065309;28;20372;-53
2021/01/04 10:00:39;;;;;;;50.70;26.08;;;;;;;0.29;80.15;101005.50;5065489;28;20082;-53
2021/01/04 10:03:17;;;;;;;49.45;27.65;;;;;;;0.05;81.11;100974.78;5060877;28;20365;-53
2021/01/04 10:05:45;;;;;;;52.72;28.45;;;;;;;-0.05;81.24;100991.34;5045336;28;20314;-53
2021/01/04 10:08:20;;;;;;;46.67;27.65;;;;;;;-0.25;80.75;100944.66;5045396;28;20029;-53
2021/01/04 10:10:58;;;;;;;53.70;26.63;;;;;;;0.03;81.40;100989.13;5044469;28;20070;-53
2021/01/04 10:13:30;;;;;;;55.20;30.48;;;;;;;-0.42;80.88;100909.97;5045324;28;20031;-53
2021/01/04 10:15:57;;;;;;;;;;;;;;;0.02;80.79;100995.03;5054466;28;20096;-53
2021/01/04 10:18:34;;;;;;;56.88;29.45;;;;;;;0.24;80.96;101001.00;5065151;28;19984;-52
2021/01/04 10:21:00;;;;;;;56.97;30.00;;;;;;;0.37;80.32;100993.09;5065120;28;20052;-54
2021/01/04 10:23:41;;;;;;;57.00;30.45;;;;;;;0.21;80.04;100927.88;5065227;28;20029;-53
2021/01/04 10:26:09;;;;;;;55.17;28.87;;;;;;;0.48;79.90;101001.16;5065365;28;20077;-52
2021/01/04 10:28:38;;;;;;;53.58;29.10;;;;;;;0.40;79.64;100995.75;5055465;28;20590;-53
2021/01/04 10:31:29;;;;;;;57.20;31.10;;;;;;;-0.06;80.17;100922.53;5060057;28;20036;-52
2021/01/04 10:34:10;;;;;;;56.78;29.25;;;;;;;0.14;80.93;101015.03;5061577;28;20298;-53
2021/01/04 10:36:38;;;;;;;56.05;29.45;;;;;;;0.10;80.81;100998.78;5061272;28;20123;-53
2021/01/04 10:39:33;;;;;;;53.67;29.50;;;;;;;0.38;81.06;100991.41;5058906;28;20040;-53
2021/01/04 10:42:06;;;;;;;65.18;30.88;;;;;;;0.25;80.42;100990.03;5062288;28;20118;-55
2021/01/04 10:44:36;;;;;;;63.28;34.10;;;;;;;0.17;80.77;100960.00;5064860;28;20048;-53
2021/01/04 10:47:34;;;;;;;57.92;31.77;;;;;;;0.50;80.27;100997.88;5064396;28;20090;-55
2021/01/04 10:50:11;;;;;;;52.00;29.50;;;;;;;-0.07;80.43;100941.13;5051487;28;20215;-53
2021/01/04 10:52:37;;;;;;;48.75;27.67;;;;;;;0.31;80.25;101009.00;5044934;28;20222;-53
2021/01/04 10:55:03;;;;;;;52.28;28.70;;;;;;;0.41;80.03;101001.72;5044534;28;20033;-53
2021/01/04 10:57:36;;;;;;;51.58;28.55;;;;;;;0.48;80.34;101016.44;5044783;28;20033;-53
2021/01/04 11:00:04;;;;;;;51.45;28.88;;;;;;;0.35;80.81;101025.25;5063938;28;20075;-53
2021/01/04 11:03:06;;;;;;;50.35;28.00;;;;;;;0.16;79.93;101024.50;5063923;28;20045;-53
2021/01/04 11:05:35;;;;;;;47.33;28.10;;;;;;;-0.24;81.61;100959.13;5064099;28;20043;-53
2021/01/04 11:08:12;;;;;;;48.10;27.05;;;;;;;0.25;81.44;101043.53;5064291;28;20104;-52
2021/01/04 11:10:38;;;;;;;53.38;29.55;;;;;;;0.25;82.15;101021.47;5063847;28;20025;-53
2021/01/04 11:13:03;;;;;;;52.58;28.40;;;;;;;-0.05;82.76;101009.16;5044519;28;20021;-53
2021/01/04 11:15:34;;;;;;;54.63;28.40;;;;;;;0.09;83.20;101008.91;5049149;28;20027;-53
2021/01/04 11:18:16;;;;;;;50.25;27.40;;;;;;;0.08;83.10;101027.50;5063960;28;20024;-53
2021/01/04 11:20:54;;;;;;;46.10;26.83;;;;;;;-0.16;83.62;101025.63;5059438;28;20041;-52
2021/01/04 11:23:20;;;;;;;50.78;30.40;;;;;;;0.08;83.49;101009.69;5063664;28;20029;-53
2021/01/04 11:25:45;;;;;;;53.65;28.73;;;;;;;0.04;83.40;101015.44;5063347;28;20094;-53
2021/01/04 11:28:11;;;;;;;52.42;30.67;;;;;;;0.20;83.39;101033.16;5062797;28;20020;-53
2021/01/04 11:30:37;;;;;;;51.30;28.50;;;;;;;0.14;83.33;101031.22;5058192;28;20322;-52
2021/01/04 11:33:04;;;;;;;38.58;19.27;;;;;;;-0.20;83.30;101032.28;5056297;28;20267;-53
2021/01/04 11:35:30;;;;;;;50.90;29.00;;;;;;;-0.19;84.56;101028.91;5057417;28;20057;-53
2021/01/04 11:37:59;;;;;;;48.00;28.67;;;;;;;-0.07;84.64;101027.72;5055261;28;20032;-53
2021/01/04 11:40:26;;;;;;;52.47;29.27;;;;;;;-0.31;84.33;100961.31;5052468;28;20056;-53
2021/01/04 11:42:52;;;;;;;48.85;27.48;;;;;;;-0.04;84.03;101021.09;5063681;28;20029;-53
2021/01/04 11:45:20;;;;;;;47.92;27.23;;;;;;;-0.29;84.07;100995.38;5062494;28;20033;-53
2021/01/04 11:47:46;;;;;;;49.00;28.30;;;;;;;-0.06;84.41;101021.81;5063221;28;20028;-53
2021/01/04 11:50:15;;;;;;;53.72;30.15;;;;;;;0.07;83.92;101039.41;5063482;28;20025;-53
2021/01/04 11:52:41;;;;;;;46.25;27.27;;;;;;;-0.16;83.97;101022.22;5062421;28;20025;-53
2021/01/04 11:55:11;;;;;;;42.80;25.30;;;;;;;-0.41;83.32;100975.34;5063154;28;20107;-54
2021/01/04 11:57:37;;;;;;;43.15;25.73;;;;;;;-0.31;84.30;101005.47;5063173;28;20021;-53
2021/01/04 12:00:08;;;;;;;42.85;25.15;;;;;;;-0.42;84.82;100950.69;5062934;28;20055;-53
2021/01/04 12:02:34;;;;;;;39.70;24.38;;;;;;;-0.10;83.60;101019.94;5058636;28;20033;-53